Terminal Aerodrome Forecast
Issued by NWS

Home | Current Version | Previous Version | Text Only | Print | Product List | Glossary On
Versions: 1 2 3 4 5 6 7 8 9 10 11 12 13 14
000
FTUS44 KMAF 271100
TAFCNM
TAF
KCNM 271132Z 2712/2812 36010KT 6SM -RASN BKN020 OVC035
      TEMPO 2712/2715 4SM BR BKN015
     FM271500 02008KT 5SM -RA BKN020
     FM271900 03007KT 6SM BR BKN040=

USA.gov is the U.S. government's official web portal to all federal, state and local government web resources and services.